sensor_id;sensor_type;location;lat;lon;timestamp;temperature;humidity
7399;DHT22;3740;50.700;7.184;2023-04-19T00:02:24;13.50;99.90
7399;DHT22;3740;50.700;7.184;2023-04-19T00:04:49;13.50;99.90
7399;DHT22;3740;50.700;7.184;2023-04-19T00:07:15;13.50;99.90
7399;DHT22;3740;50.700;7.184;2023-04-19T00:09:42;13.50;99.90
7399;DHT22;3740;50.700;7.184;2023-04-19T00:12:08;13.40;99.90
7399;DHT22;3740;50.700;7.184;2023-04-19T00:14:34;13.40;99.90
7399;DHT22;3740;50.700;7.184;2023-04-19T00:16:59;13.50;99.90
7399;DHT22;3740;50.700;7.184;2023-04-19T00:19:25;13.50;99.90
7399;DHT22;3740;50.700;7.184;2023-04-19T00:21:51;13.50;99.90
7399;DHT22;3740;50.700;7.184;2023-04-19T00:24:16;13.50;99.90
7399;DHT22;3740;50.700;7.184;2023-04-19T00:26:42;13.30;99.90
7399;DHT22;3740;50.700;7.184;2023-04-19T00:29:08;13.30;99.90
7399;DHT22;3740;50.700;7.184;2023-04-19T00:31:34;13.20;99.90
7399;DHT22;3740;50.700;7.184;2023-04-19T00:34:00;13.20;99.90
7399;DHT22;3740;50.700;7.184;2023-04-19T00:36:25;13.20;99.90
7399;DHT22;3740;50.700;7.184;2023-04-19T00:38:51;13.10;99.90
7399;DHT22;3740;50.700;7.184;2023-04-19T00:41:17;13.00;99.90
7399;DHT22;3740;50.700;7.184;2023-04-19T00:43:42;12.90;99.90
7399;DHT22;3740;50.700;7.184;2023-04-19T00:46:08;13.00;99.90
7399;DHT22;3740;50.700;7.184;2023-04-19T00:48:34;13.00;99.90
7399;DHT22;3740;50.700;7.184;2023-04-19T00:51:03;13.00;99.90
7399;DHT22;3740;50.700;7.184;2023-04-19T00:53:29;13.00;99.90
7399;DHT22;3740;50.700;7.184;2023-04-19T00:55:56;12.90;99.90
7399;DHT22;3740;50.700;7.184;2023-04-19T00:58:24;12.80;99.90
7399;DHT22;3740;50.700;7.184;2023-04-19T01:00:50;12.80;99.90
7399;DHT22;3740;50.700;7.184;2023-04-19T01:03:15;12.80;99.90
7399;DHT22;3740;50.700;7.184;2023-04-19T01:05:41;12.80;99.90
7399;DHT22;3740;50.700;7.184;2023-04-19T01:08:06;12.80;99.90
7399;DHT22;3740;50.700;7.184;2023-04-19T01:10:32;12.60;99.90
7399;DHT22;3740;50.700;7.184;2023-04-19T01:12:58;12.30;99.90
7399;DHT22;3740;50.700;7.184;2023-04-19T01:15:24;12.30;99.90
7399;DHT22;3740;50.700;7.184;2023-04-19T01:17:50;12.30;99.90
7399;DHT22;3740;50.700;7.184;2023-04-19T01:20:15;12.30;99.90
7399;DHT22;3740;50.700;7.184;2023-04-19T01:22:41;12.30;99.90
7399;DHT22;3740;50.700;7.184;2023-04-19T01:25:07;12.30;99.90
7399;DHT22;3740;50.700;7.184;2023-04-19T01:27:33;12.10;99.90
7399;DHT22;3740;50.700;7.184;2023-04-19T01:29:58;11.90;99.90
7399;DHT22;3740;50.700;7.184;2023-04-19T01:32:24;11.80;99.90
7399;DHT22;3740;50.700;7.184;2023-04-19T01:34:52;11.90;99.90
7399;DHT22;3740;50.700;7.184;2023-04-19T01:37:18;11.90;99.90
7399;DHT22;3740;50.700;7.184;2023-04-19T01:39:43;11.90;99.90
7399;DHT22;3740;50.700;7.184;2023-04-19T01:42:09;11.80;99.90
7399;DHT22;3740;50.700;7.184;2023-04-19T01:44:35;11.70;99.90
7399;DHT22;3740;50.700;7.184;2023-04-19T01:47:00;11.40;99.90
7399;DHT22;3740;50.700;7.184;2023-04-19T01:49:26;11.50;99.90
7399;DHT22;3740;50.700;7.184;2023-04-19T01:51:51;11.50;99.90
7399;DHT22;3740;50.700;7.184;2023-04-19T01:54:17;11.60;99.90
7399;DHT22;3740;50.700;7.184;2023-04-19T01:56:43;11.60;99.90
7399;DHT22;3740;50.700;7.184;2023-04-19T01:59:08;11.40;99.90
7399;DHT22;3740;50.700;7.184;2023-04-19T02:01:34;11.30;99.90
7399;DHT22;3740;50.700;7.184;2023-04-19T02:04:01;11.20;99.90
7399;DHT22;3740;50.700;7.184;2023-04-19T02:06:27;11.20;99.90
7399;DHT22;3740;50.700;7.184;2023-04-19T02:08:52;11.40;99.90
7399;DHT22;3740;50.700;7.184;2023-04-19T02:11:18;11.40;99.90
7399;DHT22;3740;50.700;7.184;2023-04-19T02:13:44;11.50;99.90
7399;DHT22;3740;50.700;7.184;2023-04-19T02:16:10;11.40;99.90
7399;DHT22;3740;50.700;7.184;2023-04-19T02:18:36;11.10;99.90
7399;DHT22;3740;50.700;7.184;2023-04-19T02:21:06;10.90;99.90
7399;DHT22;3740;50.700;7.184;2023-04-19T02:23:31;11.00;99.90
7399;DHT22;3740;50.700;7.184;2023-04-19T02:25:57;11.00;99.90
7399;DHT22;3740;50.700;7.184;2023-04-19T02:28:23;11.00;99.90
7399;DHT22;3740;50.700;7.184;2023-04-19T02:30:48;11.10;99.90
7399;DHT22;3740;50.700;7.184;2023-04-19T02:33:14;10.90;99.90
7399;DHT22;3740;50.700;7.184;2023-04-19T02:35:40;10.70;99.90
7399;DHT22;3740;50.700;7.184;2023-04-19T02:38:05;10.60;99.90
7399;DHT22;3740;50.700;7.184;2023-04-19T02:40:31;10.70;99.90
7399;DHT22;3740;50.700;7.184;2023-04-19T02:42:56;10.70;99.90
7399;DHT22;3740;50.700;7.184;2023-04-19T02:45:22;10.80;99.90
7399;DHT22;3740;50.700;7.184;2023-04-19T02:47:47;10.80;99.90
7399;DHT22;3740;50.700;7.184;2023-04-19T02:50:15;10.60;99.90
7399;DHT22;3740;50.700;7.184;2023-04-19T02:52:40;10.50;99.90
7399;DHT22;3740;50.700;7.184;2023-04-19T02:55:06;10.40;99.90
7399;DHT22;3740;50.700;7.184;2023-04-19T02:57:32;10.50;99.90
7399;DHT22;3740;50.700;7.184;2023-04-19T02:59:58;10.60;99.90
7399;DHT22;3740;50.700;7.184;2023-04-19T03:02:24;10.70;99.90
7399;DHT22;3740;50.700;7.184;2023-04-19T03:04:50;10.80;99.90
7399;DHT22;3740;50.700;7.184;2023-04-19T03:07:15;10.90;99.90
7399;DHT22;3740;50.700;7.184;2023-04-19T03:09:41;10.90;99.90
7399;DHT22;3740;50.700;7.184;2023-04-19T03:12:07;11.00;99.90
7399;DHT22;3740;50.700;7.184;2023-04-19T03:14:33;11.10;99.90
7399;DHT22;3740;50.700;7.184;2023-04-19T03:16:58;11.10;99.90
7399;DHT22;3740;50.700;7.184;2023-04-19T03:19:24;11.20;99.90
7399;DHT22;3740;50.700;7.184;2023-04-19T03:21:50;11.30;99.90
7399;DHT22;3740;50.700;7.184;2023-04-19T03:24:17;11.30;99.90
7399;DHT22;3740;50.700;7.184;2023-04-19T03:26:43;11.40;99.90
7399;DHT22;3740;50.700;7.184;2023-04-19T03:29:09;11.50;99.90
7399;DHT22;3740;50.700;7.184;2023-04-19T03:31:34;11.60;99.90
7399;DHT22;3740;50.700;7.184;2023-04-19T03:34:00;11.70;99.90
7399;DHT22;3740;50.700;7.184;2023-04-19T03:36:26;11.70;99.90
7399;DHT22;3740;50.700;7.184;2023-04-19T03:38:51;11.70;99.90
7399;DHT22;3740;50.700;7.184;2023-04-19T03:41:18;11.70;99.90
7399;DHT22;3740;50.700;7.184;2023-04-19T03:43:44;11.70;99.90
7399;DHT22;3740;50.700;7.184;2023-04-19T03:46:10;11.70;99.90
7399;DHT22;3740;50.700;7.184;2023-04-19T03:48:35;11.80;99.90
7399;DHT22;3740;50.700;7.184;2023-04-19T03:51:01;11.80;99.90
7399;DHT22;3740;50.700;7.184;2023-04-19T03:53:26;11.80;99.90
7399;DHT22;3740;50.700;7.184;2023-04-19T03:55:52;11.70;99.90
7399;DHT22;3740;50.700;7.184;2023-04-19T03:58:18;11.80;99.90
7399;DHT22;3740;50.700;7.184;2023-04-19T04:00:43;11.80;99.90
7399;DHT22;3740;50.700;7.184;2023-04-19T04:03:09;11.90;99.90
7399;DHT22;3740;50.700;7.184;2023-04-19T04:05:34;11.90;99.90
7399;DHT22;3740;50.700;7.184;2023-04-19T04:08:00;11.80;99.90
7399;DHT22;3740;50.700;7.184;2023-04-19T04:10:25;11.70;99.90
7399;DHT22;3740;50.700;7.184;2023-04-19T04:12:51;11.60;99.90
7399;DHT22;3740;50.700;7.184;2023-04-19T04:15:17;11.60;99.90
7399;DHT22;3740;50.700;7.184;2023-04-19T04:17:42;11.70;99.90
7399;DHT22;3740;50.700;7.184;2023-04-19T04:20:08;11.70;99.90
7399;DHT22;3740;50.700;7.184;2023-04-19T04:25:04;11.60;99.90
7399;DHT22;3740;50.700;7.184;2023-04-19T04:27:30;11.60;99.90
7399;DHT22;3740;50.700;7.184;2023-04-19T04:29:55;11.60;99.90
7399;DHT22;3740;50.700;7.184;2023-04-19T04:32:21;11.70;99.90
7399;DHT22;3740;50.700;7.184;2023-04-19T04:34:47;11.70;99.90
7399;DHT22;3740;50.700;7.184;2023-04-19T04:37:13;11.70;99.90
7399;DHT22;3740;50.700;7.184;2023-04-19T04:39:38;11.70;99.90
7399;DHT22;3740;50.700;7.184;2023-04-19T04:42:05;11.60;99.90
7399;DHT22;3740;50.700;7.184;2023-04-19T04:44:36;11.60;99.90
7399;DHT22;3740;50.700;7.184;2023-04-19T04:47:01;11.60;99.90
7399;DHT22;3740;50.700;7.184;2023-04-19T04:49:28;11.60;99.90
7399;DHT22;3740;50.700;7.184;2023-04-19T04:51:53;11.70;99.90
7399;DHT22;3740;50.700;7.184;2023-04-19T04:54:19;11.70;99.90
7399;DHT22;3740;50.700;7.184;2023-04-19T04:56:44;11.70;99.90
7399;DHT22;3740;50.700;7.184;2023-04-19T04:59:10;11.60;99.90
7399;DHT22;3740;50.700;7.184;2023-04-19T05:01:35;11.60;99.90
7399;DHT22;3740;50.700;7.184;2023-04-19T05:04:01;11.70;99.90
7399;DHT22;3740;50.700;7.184;2023-04-19T05:06:27;11.70;99.90
7399;DHT22;3740;50.700;7.184;2023-04-19T05:08:52;11.70;99.90
7399;DHT22;3740;50.700;7.184;2023-04-19T05:11:19;11.60;99.90
7399;DHT22;3740;50.700;7.184;2023-04-19T05:13:45;11.60;99.90
7399;DHT22;3740;50.700;7.184;2023-04-19T05:16:10;13.60;99.90
7399;DHT22;3740;50.700;7.184;2023-04-19T05:18:36;11.60;99.90
7399;DHT22;3740;50.700;7.184;2023-04-19T05:21:01;11.70;99.90
7399;DHT22;3740;50.700;7.184;2023-04-19T05:23:27;11.80;99.90
7399;DHT22;3740;50.700;7.184;2023-04-19T05:25:52;11.80;99.90
7399;DHT22;3740;50.700;7.184;2023-04-19T05:28:18;11.80;99.90
7399;DHT22;3740;50.700;7.184;2023-04-19T05:30:43;11.70;99.90
7399;DHT22;3740;50.700;7.184;2023-04-19T05:33:09;11.70;99.90
7399;DHT22;3740;50.700;7.184;2023-04-19T05:35:34;11.70;99.90
7399;DHT22;3740;50.700;7.184;2023-04-19T05:38:00;11.80;99.90
7399;DHT22;3740;50.700;7.184;2023-04-19T05:40:26;11.80;99.90
7399;DHT22;3740;50.700;7.184;2023-04-19T05:42:52;11.90;99.90
7399;DHT22;3740;50.700;7.184;2023-04-19T05:45:18;11.90;99.90
7399;DHT22;3740;50.700;7.184;2023-04-19T05:47:43;12.00;99.90
7399;DHT22;3740;50.700;7.184;2023-04-19T05:50:09;12.20;99.90
7399;DHT22;3740;50.700;7.184;2023-04-19T05:52:35;12.40;99.90
7399;DHT22;3740;50.700;7.184;2023-04-19T05:55:00;12.40;99.90
7399;DHT22;3740;50.700;7.184;2023-04-19T05:57:26;12.60;99.90
7399;DHT22;3740;50.700;7.184;2023-04-19T05:59:51;12.60;99.90
7399;DHT22;3740;50.700;7.184;2023-04-19T06:02:17;12.50;99.90
7399;DHT22;3740;50.700;7.184;2023-04-19T06:04:43;12.60;99.90
7399;DHT22;3740;50.700;7.184;2023-04-19T06:07:08;12.70;99.90
7399;DHT22;3740;50.700;7.184;2023-04-19T06:09:34;12.90;99.90
7399;DHT22;3740;50.700;7.184;2023-04-19T06:11:59;13.00;99.90
7399;DHT22;3740;50.700;7.184;2023-04-19T06:14:26;12.90;99.90
7399;DHT22;3740;50.700;7.184;2023-04-19T06:16:53;12.80;99.90
7399;DHT22;3740;50.700;7.184;2023-04-19T06:19:19;12.70;99.90
7399;DHT22;3740;50.700;7.184;2023-04-19T06:21:45;12.80;99.90
7399;DHT22;3740;50.700;7.184;2023-04-19T06:24:12;12.90;99.90
7399;DHT22;3740;50.700;7.184;2023-04-19T06:26:37;13.00;99.90
7399;DHT22;3740;50.700;7.184;2023-04-19T06:29:03;13.10;99.90
7399;DHT22;3740;50.700;7.184;2023-04-19T06:31:28;13.00;99.90
7399;DHT22;3740;50.700;7.184;2023-04-19T06:33:54;12.90;99.90
7399;DHT22;3740;50.700;7.184;2023-04-19T06:36:20;13.00;99.90
7399;DHT22;3740;50.700;7.184;2023-04-19T06:38:45;13.00;99.90
7399;DHT22;3740;50.700;7.184;2023-04-19T06:41:11;13.10;99.90
7399;DHT22;3740;50.700;7.184;2023-04-19T06:43:37;13.10;99.90
7399;DHT22;3740;50.700;7.184;2023-04-19T06:46:05;13.10;99.90
7399;DHT22;3740;50.700;7.184;2023-04-19T06:48:31;12.80;99.90
7399;DHT22;3740;50.700;7.184;2023-04-19T06:50:57;12.90;99.90
7399;DHT22;3740;50.700;7.184;2023-04-19T06:53:23;13.00;99.90
7399;DHT22;3740;50.700;7.184;2023-04-19T06:55:52;13.10;99.90
7399;DHT22;3740;50.700;7.184;2023-04-19T06:58:17;13.20;99.90
7399;DHT22;3740;50.700;7.184;2023-04-19T07:00:43;13.30;99.90
7399;DHT22;3740;50.700;7.184;2023-04-19T07:03:08;13.30;99.90
7399;DHT22;3740;50.700;7.184;2023-04-19T07:05:35;13.20;99.90
7399;DHT22;3740;50.700;7.184;2023-04-19T07:08:01;13.20;99.90
7399;DHT22;3740;50.700;7.184;2023-04-19T07:10:26;13.30;99.90
7399;DHT22;3740;50.700;7.184;2023-04-19T07:12:52;13.60;99.90
7399;DHT22;3740;50.700;7.184;2023-04-19T07:15:17;13.50;99.90
7399;DHT22;3740;50.700;7.184;2023-04-19T07:17:43;13.60;99.90
7399;DHT22;3740;50.700;7.184;2023-04-19T07:20:09;13.20;99.90
7399;DHT22;3740;50.700;7.184;2023-04-19T07:22:34;13.30;99.90
7399;DHT22;3740;50.700;7.184;2023-04-19T07:25:00;13.60;99.90
7399;DHT22;3740;50.700;7.184;2023-04-19T07:27:25;13.70;99.90
7399;DHT22;3740;50.700;7.184;2023-04-19T07:29:51;13.90;99.90
7399;DHT22;3740;50.700;7.184;2023-04-19T07:32:17;13.80;99.90
7399;DHT22;3740;50.700;7.184;2023-04-19T07:34:43;13.80;99.90
7399;DHT22;3740;50.700;7.184;2023-04-19T07:37:10;14.00;99.90
7399;DHT22;3740;50.700;7.184;2023-04-19T07:39:37;14.10;99.90
7399;DHT22;3740;50.700;7.184;2023-04-19T07:42:02;14.20;99.90
7399;DHT22;3740;50.700;7.184;2023-04-19T07:44:28;14.20;99.90
7399;DHT22;3740;50.700;7.184;2023-04-19T07:46:53;14.20;99.90
7399;DHT22;3740;50.700;7.184;2023-04-19T07:49:19;14.10;99.90
7399;DHT22;3740;50.700;7.184;2023-04-19T07:51:45;14.10;99.90
7399;DHT22;3740;50.700;7.184;2023-04-19T07:54:10;14.00;99.90
7399;DHT22;3740;50.700;7.184;2023-04-19T07:56:37;13.80;99.90
7399;DHT22;3740;50.700;7.184;2023-04-19T07:59:02;13.80;99.90
7399;DHT22;3740;50.700;7.184;2023-04-19T08:01:28;13.80;99.90
7399;DHT22;3740;50.700;7.184;2023-04-19T08:03:54;13.60;99.90
7399;DHT22;3740;50.700;7.184;2023-04-19T08:06:19;13.70;99.90
7399;DHT22;3740;50.700;7.184;2023-04-19T08:08:46;14.00;99.90
7399;DHT22;3740;50.700;7.184;2023-04-19T08:11:12;14.00;99.90
7399;DHT22;3740;50.700;7.184;2023-04-19T08:13:37;14.10;99.90
7399;DHT22;3740;50.700;7.184;2023-04-19T08:16:03;14.20;99.90
7399;DHT22;3740;50.700;7.184;2023-04-19T08:18:29;14.30;99.90
7399;DHT22;3740;50.700;7.184;2023-04-19T08:20:55;14.50;99.90
7399;DHT22;3740;50.700;7.184;2023-04-19T08:23:21;14.80;99.90
7399;DHT22;3740;50.700;7.184;2023-04-19T08:25:47;15.00;99.90
7399;DHT22;3740;50.700;7.184;2023-04-19T08:28:12;15.20;99.90
7399;DHT22;3740;50.700;7.184;2023-04-19T08:30:39;15.10;99.90
7399;DHT22;3740;50.700;7.184;2023-04-19T08:33:04;14.90;99.90
7399;DHT22;3740;50.700;7.184;2023-04-19T08:35:30;14.90;99.90
7399;DHT22;3740;50.700;7.184;2023-04-19T08:37:55;15.10;99.90
7399;DHT22;3740;50.700;7.184;2023-04-19T08:40:21;15.10;99.90
7399;DHT22;3740;50.700;7.184;2023-04-19T08:42:47;15.00;99.90
7399;DHT22;3740;50.700;7.184;2023-04-19T08:45:15;14.90;99.90
7399;DHT22;3740;50.700;7.184;2023-04-19T08:47:41;14.80;99.90
7399;DHT22;3740;50.700;7.184;2023-04-19T08:50:07;14.70;99.90
7399;DHT22;3740;50.700;7.184;2023-04-19T08:52:34;14.70;99.90
7399;DHT22;3740;50.700;7.184;2023-04-19T08:55:02;14.80;99.90
7399;DHT22;3740;50.700;7.184;2023-04-19T08:57:30;14.80;99.90
7399;DHT22;3740;50.700;7.184;2023-04-19T08:59:57;14.80;99.90
7399;DHT22;3740;50.700;7.184;2023-04-19T09:02:23;14.90;99.90
7399;DHT22;3740;50.700;7.184;2023-04-19T09:04:48;15.00;99.90
7399;DHT22;3740;50.700;7.184;2023-04-19T09:07:27;15.00;99.90
7399;DHT22;3740;50.700;7.184;2023-04-19T09:12:33;15.00;99.90
7399;DHT22;3740;50.700;7.184;2023-04-19T09:14:59;15.10;99.90
7399;DHT22;3740;50.700;7.184;2023-04-19T09:17:25;15.10;99.90
7399;DHT22;3740;50.700;7.184;2023-04-19T09:19:50;15.20;99.90
7399;DHT22;3740;50.700;7.184;2023-04-19T09:22:16;15.20;99.90
7399;DHT22;3740;50.700;7.184;2023-04-19T09:24:42;15.20;99.90
7399;DHT22;3740;50.700;7.184;2023-04-19T09:27:08;15.10;99.90
7399;DHT22;3740;50.700;7.184;2023-04-19T09:29:36;15.40;99.90
7399;DHT22;3740;50.700;7.184;2023-04-19T09:32:02;15.60;99.90
7399;DHT22;3740;50.700;7.184;2023-04-19T09:34:28;15.70;99.90
7399;DHT22;3740;50.700;7.184;2023-04-19T09:36:55;15.70;99.90
7399;DHT22;3740;50.700;7.184;2023-04-19T09:39:32;15.80;99.90
7399;DHT22;3740;50.700;7.184;2023-04-19T09:42:00;15.90;99.90
7399;DHT22;3740;50.700;7.184;2023-04-19T09:44:26;15.90;99.90
7399;DHT22;3740;50.700;7.184;2023-04-19T09:46:52;15.80;99.90
7399;DHT22;3740;50.700;7.184;2023-04-19T09:49:21;15.90;99.90
7399;DHT22;3740;50.700;7.184;2023-04-19T09:51:55;16.10;99.90
7399;DHT22;3740;50.700;7.184;2023-04-19T09:54:23;16.20;99.90
7399;DHT22;3740;50.700;7.184;2023-04-19T09:56:50;16.10;99.90
7399;DHT22;3740;50.700;7.184;2023-04-19T09:59:16;16.30;99.90
7399;DHT22;3740;50.700;7.184;2023-04-19T10:01:52;16.20;99.90
7399;DHT22;3740;50.700;7.184;2023-04-19T10:04:19;16.20;99.90
7399;DHT22;3740;50.700;7.184;2023-04-19T10:06:49;16.40;99.90
7399;DHT22;3740;50.700;7.184;2023-04-19T10:09:17;16.70;99.90
7399;DHT22;3740;50.700;7.184;2023-04-19T10:11:48;16.50;99.90
7399;DHT22;3740;50.700;7.184;2023-04-19T10:14:15;16.20;99.90
7399;DHT22;3740;50.700;7.184;2023-04-19T10:16:40;16.40;99.90
7399;DHT22;3740;50.700;7.184;2023-04-19T10:19:14;16.30;99.90
7399;DHT22;3740;50.700;7.184;2023-04-19T10:21:41;16.30;99.90
7399;DHT22;3740;50.700;7.184;2023-04-19T10:24:08;16.10;99.90
7399;DHT22;3740;50.700;7.184;2023-04-19T10:27:04;16.20;99.90
7399;DHT22;3740;50.700;7.184;2023-04-19T10:29:57;16.40;99.90
7399;DHT22;3740;50.700;7.184;2023-04-19T10:32:26;16.30;99.90
7399;DHT22;3740;50.700;7.184;2023-04-19T10:34:52;16.50;99.90
7399;DHT22;3740;50.700;7.184;2023-04-19T10:37:21;16.70;99.90
7399;DHT22;3740;50.700;7.184;2023-04-19T10:39:48;16.80;99.90
7399;DHT22;3740;50.700;7.184;2023-04-19T10:42:14;17.40;99.90
7399;DHT22;3740;50.700;7.184;2023-04-19T10:44:39;17.90;99.60
7399;DHT22;3740;50.700;7.184;2023-04-19T10:47:05;18.00;97.90
7399;DHT22;3740;50.700;7.184;2023-04-19T10:49:30;19.10;95.90
7399;DHT22;3740;50.700;7.184;2023-04-19T10:51:56;20.30;97.10
7399;DHT22;3740;50.700;7.184;2023-04-19T10:54:37;22.30;94.60
7399;DHT22;3740;50.700;7.184;2023-04-19T10:57:07;24.60;80.90
7399;DHT22;3740;50.700;7.184;2023-04-19T10:59:35;26.50;72.70
7399;DHT22;3740;50.700;7.184;2023-04-19T11:02:47;26.70;61.80
7399;DHT22;3740;50.700;7.184;2023-04-19T11:07:18;27.60;59.60
7399;DHT22;3740;50.700;7.184;2023-04-19T11:09:46;28.50;57.20
7399;DHT22;3740;50.700;7.184;2023-04-19T11:12:17;28.60;52.00
7399;DHT22;3740;50.700;7.184;2023-04-19T11:14:47;27.70;51.10
7399;DHT22;3740;50.700;7.184;2023-04-19T11:17:24;27.60;51.30
7399;DHT22;3740;50.700;7.184;2023-04-19T11:20:02;26.90;52.90
7399;DHT22;3740;50.700;7.184;2023-04-19T11:22:37;27.80;46.90
7399;DHT22;3740;50.700;7.184;2023-04-19T11:25:20;28.20;49.50
7399;DHT22;3740;50.700;7.184;2023-04-19T11:27:48;29.10;49.60
7399;DHT22;3740;50.700;7.184;2023-04-19T11:30:18;29.60;47.00
7399;DHT22;3740;50.700;7.184;2023-04-19T11:32:53;30.40;48.60
7399;DHT22;3740;50.700;7.184;2023-04-19T11:35:21;31.40;45.70
7399;DHT22;3740;50.700;7.184;2023-04-19T11:37:47;31.50;45.00
7399;DHT22;3740;50.700;7.184;2023-04-19T11:40:17;31.00;43.50
7399;DHT22;3740;50.700;7.184;2023-04-19T11:42:43;30.90;42.60
7399;DHT22;3740;50.700;7.184;2023-04-19T11:45:09;30.80;44.50
7399;DHT22;3740;50.700;7.184;2023-04-19T11:47:48;30.60;43.10
7399;DHT22;3740;50.700;7.184;2023-04-19T11:50:34;30.50;43.60
7399;DHT22;3740;50.700;7.184;2023-04-19T11:53:16;28.90;41.00
7399;DHT22;3740;50.700;7.184;2023-04-19T11:55:43;28.60;45.40
7399;DHT22;3740;50.700;7.184;2023-04-19T11:58:15;28.70;44.00
7399;DHT22;3740;50.700;7.184;2023-04-19T12:00:46;30.10;44.40
7399;DHT22;3740;50.700;7.184;2023-04-19T12:03:12;30.60;41.00
7399;DHT22;3740;50.700;7.184;2023-04-19T12:05:38;30.90;38.10
7399;DHT22;3740;50.700;7.184;2023-04-19T12:08:05;30.20;40.90
7399;DHT22;3740;50.700;7.184;2023-04-19T12:10:33;31.30;40.90
7399;DHT22;3740;50.700;7.184;2023-04-19T12:12:59;30.90;42.80
7399;DHT22;3740;50.700;7.184;2023-04-19T12:15:44;29.90;42.60
7399;DHT22;3740;50.700;7.184;2023-04-19T12:18:10;30.20;43.90
7399;DHT22;3740;50.700;7.184;2023-04-19T12:20:37;29.80;44.10
7399;DHT22;3740;50.700;7.184;2023-04-19T12:23:03;29.80;44.00
7399;DHT22;3740;50.700;7.184;2023-04-19T12:25:30;27.60;44.80
7399;DHT22;3740;50.700;7.184;2023-04-19T12:27:56;28.30;46.50
7399;DHT22;3740;50.700;7.184;2023-04-19T12:30:22;27.80;44.60
7399;DHT22;3740;50.700;7.184;2023-04-19T12:32:48;28.30;44.80
7399;DHT22;3740;50.700;7.184;2023-04-19T12:35:16;28.00;46.30
7399;DHT22;3740;50.700;7.184;2023-04-19T12:37:43;28.10;46.00
7399;DHT22;3740;50.700;7.184;2023-04-19T12:40:09;28.40;45.10
7399;DHT22;3740;50.700;7.184;2023-04-19T12:42:34;28.70;45.30
7399;DHT22;3740;50.700;7.184;2023-04-19T12:45:00;28.50;45.00
7399;DHT22;3740;50.700;7.184;2023-04-19T12:47:25;28.30;45.00
7399;DHT22;3740;50.700;7.184;2023-04-19T12:49:51;28.00;44.50
7399;DHT22;3740;50.700;7.184;2023-04-19T12:52:18;28.00;43.60
7399;DHT22;3740;50.700;7.184;2023-04-19T12:54:44;28.30;45.00
7399;DHT22;3740;50.700;7.184;2023-04-19T12:57:09;28.00;42.80
7399;DHT22;3740;50.700;7.184;2023-04-19T12:59:35;28.10;44.40
7399;DHT22;3740;50.700;7.184;2023-04-19T13:02:01;27.30;44.70
7399;DHT22;3740;50.700;7.184;2023-04-19T13:04:26;26.60;42.50
7399;DHT22;3740;50.700;7.184;2023-04-19T13:06:52;25.40;43.20
7399;DHT22;3740;50.700;7.184;2023-04-19T13:09:17;25.00;47.90
7399;DHT22;3740;50.700;7.184;2023-04-19T13:11:43;25.40;47.00
7399;DHT22;3740;50.700;7.184;2023-04-19T13:14:08;25.70;45.20
7399;DHT22;3740;50.700;7.184;2023-04-19T13:16:34;25.30;42.60
7399;DHT22;3740;50.700;7.184;2023-04-19T13:18:59;25.10;44.80
7399;DHT22;3740;50.700;7.184;2023-04-19T13:21:25;26.00;44.30
7399;DHT22;3740;50.700;7.184;2023-04-19T13:23:52;26.40;43.80
7399;DHT22;3740;50.700;7.184;2023-04-19T13:26:17;26.60;40.10
7399;DHT22;3740;50.700;7.184;2023-04-19T13:28:43;26.40;41.80
7399;DHT22;3740;50.700;7.184;2023-04-19T13:31:09;26.30;42.10
7399;DHT22;3740;50.700;7.184;2023-04-19T13:33:34;27.00;39.50
7399;DHT22;3740;50.700;7.184;2023-04-19T13:36:00;27.10;41.10
7399;DHT22;3740;50.700;7.184;2023-04-19T13:38:26;26.60;38.10
7399;DHT22;3740;50.700;7.184;2023-04-19T13:40:52;25.80;38.60
7399;DHT22;3740;50.700;7.184;2023-04-19T13:43:17;25.70;38.70
7399;DHT22;3740;50.700;7.184;2023-04-19T13:45:43;25.60;39.80
7399;DHT22;3740;50.700;7.184;2023-04-19T13:48:08;26.80;40.40
7399;DHT22;3740;50.700;7.184;2023-04-19T13:50:34;26.90;38.60
7399;DHT22;3740;50.700;7.184;2023-04-19T13:53:00;27.00;39.20
7399;DHT22;3740;50.700;7.184;2023-04-19T13:55:26;26.60;40.00
7399;DHT22;3740;50.700;7.184;2023-04-19T13:57:51;25.70;38.70
7399;DHT22;3740;50.700;7.184;2023-04-19T14:00:17;25.40;39.30
7399;DHT22;3740;50.700;7.184;2023-04-19T14:02:44;24.70;38.60
7399;DHT22;3740;50.700;7.184;2023-04-19T14:05:10;23.40;37.80
7399;DHT22;3740;50.700;7.184;2023-04-19T14:07:38;23.10;37.00
7399;DHT22;3740;50.700;7.184;2023-04-19T14:10:05;22.20;37.40
7399;DHT22;3740;50.700;7.184;2023-04-19T14:12:31;22.20;39.00
7399;DHT22;3740;50.700;7.184;2023-04-19T14:14:57;22.00;39.40
7399;DHT22;3740;50.700;7.184;2023-04-19T14:17:22;22.40;38.60
7399;DHT22;3740;50.700;7.184;2023-04-19T14:19:48;22.60;38.90
7399;DHT22;3740;50.700;7.184;2023-04-19T14:22:15;22.40;37.60
7399;DHT22;3740;50.700;7.184;2023-04-19T14:24:41;21.90;39.40
7399;DHT22;3740;50.700;7.184;2023-04-19T14:27:07;22.10;40.20
7399;DHT22;3740;50.700;7.184;2023-04-19T14:29:32;21.90;41.00
7399;DHT22;3740;50.700;7.184;2023-04-19T14:31:58;21.90;41.40
7399;DHT22;3740;50.700;7.184;2023-04-19T14:34:24;21.50;41.20
7399;DHT22;3740;50.700;7.184;2023-04-19T14:36:50;21.30;38.80
7399;DHT22;3740;50.700;7.184;2023-04-19T14:39:15;21.30;42.90
7399;DHT22;3740;50.700;7.184;2023-04-19T14:41:41;20.90;41.40
7399;DHT22;3740;50.700;7.184;2023-04-19T14:44:06;20.80;41.20
7399;DHT22;3740;50.700;7.184;2023-04-19T14:46:32;20.70;42.60
7399;DHT22;3740;50.700;7.184;2023-04-19T14:48:57;20.30;40.40
7399;DHT22;3740;50.700;7.184;2023-04-19T14:51:31;20.10;41.30
7399;DHT22;3740;50.700;7.184;2023-04-19T14:53:58;20.10;42.30
7399;DHT22;3740;50.700;7.184;2023-04-19T14:56:23;20.00;43.30
7399;DHT22;3740;50.700;7.184;2023-04-19T14:58:51;20.00;41.50
7399;DHT22;3740;50.700;7.184;2023-04-19T15:01:17;20.10;42.70
7399;DHT22;3740;50.700;7.184;2023-04-19T15:03:43;20.00;41.80
7399;DHT22;3740;50.700;7.184;2023-04-19T15:06:09;19.80;40.50
7399;DHT22;3740;50.700;7.184;2023-04-19T15:08:34;19.70;43.10
7399;DHT22;3740;50.700;7.184;2023-04-19T15:11:00;19.50;45.40
7399;DHT22;3740;50.700;7.184;2023-04-19T15:13:25;19.60;42.90
7399;DHT22;3740;50.700;7.184;2023-04-19T15:15:51;19.50;42.20
7399;DHT22;3740;50.700;7.184;2023-04-19T15:18:16;19.50;45.60
7399;DHT22;3740;50.700;7.184;2023-04-19T15:20:42;19.30;41.00
7399;DHT22;3740;50.700;7.184;2023-04-19T15:23:08;19.20;44.10
7399;DHT22;3740;50.700;7.184;2023-04-19T15:25:33;19.40;41.00
7399;DHT22;3740;50.700;7.184;2023-04-19T15:27:59;19.30;41.40
7399;DHT22;3740;50.700;7.184;2023-04-19T15:30:25;19.40;42.80
7399;DHT22;3740;50.700;7.184;2023-04-19T15:32:50;19.30;42.80
7399;DHT22;3740;50.700;7.184;2023-04-19T15:35:16;19.00;40.70
7399;DHT22;3740;50.700;7.184;2023-04-19T15:37:42;19.10;42.20
7399;DHT22;3740;50.700;7.184;2023-04-19T15:40:08;18.90;39.60
7399;DHT22;3740;50.700;7.184;2023-04-19T15:42:35;18.70;41.70
7399;DHT22;3740;50.700;7.184;2023-04-19T15:45:01;18.50;42.60
7399;DHT22;3740;50.700;7.184;2023-04-19T15:47:27;18.50;43.50
7399;DHT22;3740;50.700;7.184;2023-04-19T15:49:52;18.70;42.70
7399;DHT22;3740;50.700;7.184;2023-04-19T15:52:19;18.80;44.70
7399;DHT22;3740;50.700;7.184;2023-04-19T15:54:44;18.80;43.30
7399;DHT22;3740;50.700;7.184;2023-04-19T15:57:10;18.80;41.60
7399;DHT22;3740;50.700;7.184;2023-04-19T15:59:36;18.70;40.90
7399;DHT22;3740;50.700;7.184;2023-04-19T16:02:01;18.60;42.20
7399;DHT22;3740;50.700;7.184;2023-04-19T16:04:27;18.60;44.60
7399;DHT22;3740;50.700;7.184;2023-04-19T16:06:52;18.60;43.90